createdAt,value
2023-04-04T00:03:01.389Z,32.4
2023-04-04T00:08:53.608Z,30.8
2023-04-04T00:14:30.327Z,29.9
2023-04-04T00:20:21.990Z,29.1
2023-04-04T00:25:59.365Z,29.1
2023-04-04T00:31:50.830Z,33.5
2023-04-04T00:37:26.956Z,31.6
2023-04-04T00:43:18.175Z,30.4
2023-04-04T00:48:55.708Z,29.6
2023-04-04T00:54:47.614Z,28.8
2023-04-04T01:00:39.574Z,31.1
2023-04-04T01:06:32.008Z,33.1
2023-04-04T01:12:07.813Z,31.1
2023-04-04T01:17:43.742Z,30.1
2023-04-04T01:23:19.698Z,29.3
2023-04-04T01:29:10.480Z,28.5
2023-04-04T01:35:02.807Z,32.4
2023-04-04T01:40:56.170Z,32.3
2023-04-04T01:46:33.007Z,30.7
2023-04-04T01:52:11.398Z,29.9
2023-04-04T01:57:47.789Z,29
2023-04-04T02:03:39.622Z,28.5
2023-04-04T02:09:16.192Z,33.4
2023-04-04T02:14:51.948Z,31.6
2023-04-04T02:20:46.408Z,30.4
2023-04-04T02:26:07.263Z,29.6
2023-04-04T02:31:58.967Z,28.8
2023-04-04T02:37:50.599Z,30.6
2023-04-04T02:43:42.196Z,33.1
2023-04-04T02:49:39.970Z,31.1
2023-04-04T02:55:31.409Z,30.1
2023-04-04T03:01:08.281Z,29.3
2023-04-04T03:07:00.914Z,28.4
2023-04-04T03:12:52.031Z,32.4
2023-04-04T03:18:28.629Z,32.3
2023-04-04T03:24:05.082Z,30.8
2023-04-04T03:29:56.365Z,29.9
2023-04-04T03:35:47.862Z,29
2023-04-04T03:41:39.966Z,28.1
2023-04-04T03:47:31.324Z,33.3
2023-04-04T03:53:22.649Z,31.6
2023-04-04T03:58:59.381Z,30.4
2023-04-04T04:04:53.361Z,29.6
2023-04-04T04:10:44.673Z,28.7
2023-04-04T04:16:36.555Z,31.1
2023-04-04T04:22:28.931Z,33.1
2023-04-04T04:28:20.678Z,31.1
2023-04-04T04:33:57.175Z,30.1
2023-04-04T04:39:50.300Z,29.3
2023-04-04T04:45:42.073Z,28.3
2023-04-04T04:51:34.558Z,32.7
2023-04-04T04:57:26.974Z,32.1
2023-04-04T05:03:19.669Z,30.6
2023-04-04T05:09:11.146Z,29.7
2023-04-04T05:15:03.138Z,28.9
2023-04-04T05:20:56.307Z,29.9
2023-04-04T05:26:47.425Z,33.2
2023-04-04T05:32:39.018Z,31.3
2023-04-04T05:38:32.176Z,30.3
2023-04-04T05:44:08.911Z,29.3
2023-04-04T05:50:00.958Z,28.5
2023-04-04T05:55:52.142Z,32.6
2023-04-04T06:01:45.521Z,32.2
2023-04-04T06:07:37.538Z,30.7
2023-04-04T06:13:34.311Z,29.8
2023-04-04T06:19:28.792Z,28.9
2023-04-04T06:25:20.645Z,31.1
2023-04-04T06:31:13.179Z,32.8
2023-04-04T06:37:05.656Z,31.2
2023-04-04T06:42:57.385Z,30.3
2023-04-04T06:48:33.839Z,29.4
2023-04-04T06:54:25.949Z,28.6
2023-04-04T07:00:18.285Z,30.8
2023-04-04T07:06:10.620Z,32.8
2023-04-04T07:12:14.717Z,31.6
2023-04-04T07:18:14.124Z,27.9
2023-04-04T07:24:05.381Z,26.6
2023-04-04T07:30:07.903Z,25.1
2023-04-04T07:36:00.097Z,24.8
2023-04-04T07:41:53.534Z,24.1
2023-04-04T07:47:41.915Z,23.8
2023-04-04T07:53:20.065Z,23.4
2023-04-04T07:59:11.550Z,26.4
2023-04-04T08:05:06.133Z,32.1
2023-04-04T08:10:57.632Z,32.3
2023-04-04T08:16:49.607Z,31.3
2023-04-04T08:22:41.428Z,27.2
2023-04-04T08:28:44.658Z,26.2
2023-04-04T08:34:51.251Z,24.9
2023-04-04T08:40:42.787Z,24.3
2023-04-04T08:46:35.010Z,23.9
2023-04-04T08:52:27.648Z,23.4
2023-04-04T08:58:19.650Z,23.3
2023-04-04T09:04:14.847Z,30.1
2023-04-04T09:10:21.596Z,33.1
2023-04-04T09:16:25.223Z,31.1
2023-04-04T09:22:17.823Z,28.3
2023-04-04T09:28:16.679Z,25.8
2023-04-04T09:33:55.127Z,24.8
2023-04-04T09:39:48.192Z,24.3
2023-04-04T09:45:48.852Z,23.8
2023-04-04T09:51:54.410Z,23.5
2023-04-04T09:58:06.592Z,30.4
2023-04-04T10:04:15.124Z,33.3
2023-04-04T10:10:17.878Z,30.9
2023-04-04T10:16:24.657Z,27.5
2023-04-04T10:22:27.485Z,25.7
2023-04-04T10:28:21.909Z,24.6
2023-04-04T10:34:26.947Z,24.3
2023-04-04T10:40:19.282Z,23.6
2023-04-04T10:46:26.399Z,23.4
2023-04-04T10:52:12.830Z,31.4
2023-04-04T10:58:04.532Z,32.9
2023-04-04T11:03:57.488Z,31.6
2023-04-04T11:09:56.469Z,27.9
2023-04-04T11:16:14.382Z,26.4
2023-04-04T11:22:22.959Z,24.9
2023-04-04T11:28:15.098Z,24.6
2023-04-04T11:34:19.373Z,23.9
2023-04-04T11:40:12.989Z,25.4
2023-04-04T11:46:04.579Z,31.8
2023-04-04T11:51:41.071Z,32.7
2023-04-04T11:57:34.353Z,31.6
2023-04-04T12:03:35.271Z,27.7
2023-04-04T12:09:27.848Z,26.5
2023-04-04T12:15:33.364Z,24.9
2023-04-04T12:21:25.394Z,24.5
2023-04-04T12:27:19.608Z,23.9
2023-04-04T12:33:11.717Z,25.3
2023-04-04T12:39:04.139Z,31.6
2023-04-04T12:44:56.020Z,32.7
2023-04-04T12:50:48.357Z,31.1
2023-04-04T12:57:04.929Z,27.6
2023-04-04T13:03:00.394Z,26
2023-04-04T13:08:52.592Z,24.6
2023-04-04T13:14:31.524Z,24.3
2023-04-04T13:20:23.887Z,23.6
2023-04-04T13:26:15.999Z,23.4
2023-04-04T13:32:08.120Z,30.9
2023-04-04T13:38:00.814Z,33.2
2023-04-04T13:43:52.162Z,31.7
2023-04-04T13:49:44.817Z,28.9
2023-04-04T13:55:40.058Z,26.5
2023-04-04T14:01:54.225Z,24.9
2023-04-04T14:08:06.481Z,24.4
2023-04-04T14:13:58.547Z,23.8
2023-04-04T14:19:52.744Z,23.5
2023-04-04T14:25:44.727Z,30.6
2023-04-04T14:31:21.487Z,32.9
2023-04-04T14:37:15.419Z,31.9
2023-04-04T14:43:08.794Z,29.9
2023-04-04T14:49:01.580Z,26.6
2023-04-04T14:54:53.711Z,25.3
2023-04-04T15:01:03.726Z,24.6
2023-04-04T15:07:00.118Z,23.9
2023-04-04T15:12:37.093Z,23.6
2023-04-04T15:18:13.610Z,29.5
2023-04-04T15:24:05.942Z,32.4
2023-04-04T15:29:59.582Z,32.2
2023-04-04T15:35:54.308Z,31
2023-04-04T15:41:52.185Z,30.1
2023-04-04T15:47:28.359Z,33.7
2023-04-04T15:53:20.206Z,36.2
2023-04-04T15:59:13.072Z,38.4
2023-04-04T16:05:05.888Z,39.5
2023-04-04T16:10:57.801Z,39.8
2023-04-04T16:16:51.729Z,39.4
2023-04-04T16:22:45.240Z,38.8
2023-04-04T16:28:36.264Z,36.8
2023-04-04T16:34:14.501Z,36.7
2023-04-04T16:39:53.372Z,37.8
2023-04-04T16:45:50.435Z,36.1
2023-04-04T16:51:47.405Z,38.8
2023-04-04T16:57:42.615Z,40.1
2023-04-04T17:03:39.893Z,40.4
2023-04-04T17:09:40.846Z,40.4
2023-04-04T17:15:40.967Z,40.5
2023-04-04T17:21:25.797Z,40.2
2023-04-04T17:27:11.805Z,40.1
2023-04-04T17:33:12.249Z,40.5
2023-04-04T17:38:55.817Z,39.9
2023-04-04T17:44:40.668Z,39.7
2023-04-04T17:50:24.209Z,39.4
2023-04-04T17:56:10.479Z,38.2
2023-04-04T18:02:14.826Z,37.9
2023-04-04T18:08:11.268Z,40.1
2023-04-04T18:14:11.446Z,40.8
2023-04-04T18:20:28.129Z,40.8
2023-04-04T18:26:32.430Z,40.5
2023-04-04T18:32:32.294Z,40.4
2023-04-04T18:38:15.514Z,40.3
2023-04-04T18:44:15.896Z,39.8
2023-04-04T18:50:11.362Z,39.1
2023-04-04T18:56:11.844Z,38.2
2023-04-04T19:02:13.254Z,38.9
2023-04-04T19:08:16.584Z,37.6
2023-04-04T19:14:19.191Z,39.7
2023-04-04T19:20:19.638Z,38.8
2023-04-04T19:26:04.460Z,38.9
2023-04-04T19:32:06.206Z,37.3
2023-04-04T19:38:06.433Z,36.4
2023-04-04T19:44:06.824Z,35.6
2023-04-04T19:50:09.457Z,34.6
2023-04-04T19:56:10.838Z,33.6
2023-04-04T20:02:21.349Z,32.6
2023-04-04T20:08:23.024Z,32
2023-04-04T20:14:22.215Z,31.4
2023-04-04T20:20:23.229Z,30.9
2023-04-04T20:26:09.418Z,30.4
2023-04-04T20:32:08.826Z,30.3
2023-04-04T20:38:10.770Z,28.9
2023-04-04T20:44:10.610Z,28.5
2023-04-04T20:50:11.991Z,28.1
2023-04-04T20:55:56.166Z,27.6
2023-04-04T21:01:59.539Z,27.1
2023-04-04T21:08:00.390Z,26.6
2023-04-04T21:13:43.358Z,26
2023-04-04T21:19:42.875Z,25.6
2023-04-04T21:25:44.076Z,25.2
2023-04-04T21:31:43.354Z,24.9
2023-04-04T21:37:41.536Z,24.6
2023-04-04T21:43:35.766Z,24.4
2023-04-04T21:49:29.701Z,24.2
2023-04-04T21:55:23.394Z,23.9
2023-04-04T22:01:16.355Z,23.8
2023-04-04T22:07:01.644Z,23.6
2023-04-04T22:12:56.411Z,23.4
2023-04-04T22:18:48.635Z,23.4
2023-04-04T22:24:39.862Z,23.2
2023-04-04T22:30:30.923Z,23.1
2023-04-04T22:36:22.955Z,23.1
2023-04-04T22:42:14.898Z,31.4
2023-04-04T22:47:51.638Z,31.2
2023-04-04T22:53:44.624Z,29.8
2023-04-04T22:59:35.864Z,26.7
2023-04-04T23:05:28.627Z,25.9
2023-04-04T23:11:05.117Z,25.1
2023-04-04T23:16:57.120Z,24.6
2023-04-04T23:22:49.024Z,24.1
2023-04-04T23:28:40.670Z,23.7
2023-04-04T23:34:32.281Z,23.6
2023-04-04T23:40:23.886Z,29.4
2023-04-04T23:46:15.860Z,32.8
2023-04-04T23:51:37.212Z,30.5
2023-04-04T23:57:29.186Z,27.8
